Time;durP1;ratioP1;P1;durP2;ratioP2;P2;SDS_P1;SDS_P2;PMS_P1;PMS_P2;Temp;Humidity;BMP_temperature;BMP_pressure;BME280_temperature;BME280_humidity;BME280_pressure;Samples;Min_cycle;Max_cycle;Signal;HPM_P1;HPM_P2
2022/01/17 00:05:24;;;;;;;15.40;8.25;;;;;;;3.11;100.00;99261.44;4149205;84;28556;-77
2022/01/17 00:11:25;;;;;;;14.35;7.75;;;;;;;3.04;100.00;99245.38;4149205;84;43927;-75
2022/01/17 00:17:35;;;;;;;13.80;7.50;;;;;;;3.00;100.00;99235.61;4146032;84;28526;-76
2022/01/17 00:23:33;;;;;;;15.45;8.38;;;;;;;3.08;100.00;99235.23;4157025;84;43970;-75
2022/01/17 00:29:34;;;;;;;12.58;7.83;;;;;;;3.13;100.00;99240.34;4148359;84;28574;-76
2022/01/17 00:35:35;;;;;;;13.48;7.40;;;;;;;3.10;100.00;99221.27;4121748;85;28524;-75
2022/01/17 00:41:37;;;;;;;13.95;6.85;;;;;;;3.25;100.00;99217.33;4171307;84;28497;-76
2022/01/17 00:47:39;;;;;;;11.50;6.72;;;;;;;3.04;100.00;99213.50;4061595;85;28514;-76
2022/01/17 00:53:41;;;;;;;12.03;7.37;;;;;;;3.36;100.00;99222.22;4165856;84;28549;-75
2022/01/17 00:59:42;;;;;;;13.43;7.95;;;;;;;3.21;100.00;99218.19;4125027;85;28522;-74
2022/01/17 01:05:44;;;;;;;11.43;7.08;;;;;;;3.29;100.00;99204.00;4076645;85;28526;-74
2022/01/17 01:11:45;;;;;;;12.35;6.70;;;;;;;3.18;100.00;99212.72;4143758;84;28561;-74
2022/01/17 01:17:54;;;;;;;12.78;6.65;;;;;;;3.09;100.00;99190.39;4103540;85;28581;-75
2022/01/17 01:30:17;;;;;;;13.90;7.40;;;;;;;3.23;100.00;99165.69;4097346;85;29073;-74
2022/01/17 01:36:25;;;;;;;11.22;6.42;;;;;;;3.28;100.00;99163.81;4101123;85;28540;-75
2022/01/17 01:42:24;;;;;;;10.80;6.33;;;;;;;3.26;100.00;99148.04;4116515;85;28535;-75
2022/01/17 01:48:30;;;;;;;10.80;6.28;;;;;;;3.37;100.00;99134.83;4044160;86;28581;-74
2022/01/17 01:54:32;;;;;;;10.53;6.15;;;;;;;3.48;100.00;99134.38;4133136;84;28568;-76
2022/01/17 02:00:33;;;;;;;10.25;6.30;;;;;;;3.17;100.00;99115.42;4097630;85;28571;-75
2022/01/17 02:06:34;;;;;;;10.82;5.78;;;;;;;3.44;100.00;99098.55;4066867;86;28527;-75
2022/01/17 02:12:36;;;;;;;9.95;6.33;;;;;;;3.46;100.00;99094.36;4124262;86;28523;-77
2022/01/17 02:18:38;;;;;;;9.05;5.85;;;;;;;3.59;100.00;99078.61;4076305;86;28635;-75
2022/01/17 02:24:40;;;;;;;10.45;5.40;;;;;;;3.60;100.00;99056.81;4062150;86;29036;-75
2022/01/17 02:30:41;;;;;;;9.20;5.35;;;;;;;3.66;100.00;99068.55;4068171;86;28565;-75
2022/01/17 02:36:43;;;;;;;7.45;4.30;;;;;;;3.85;100.00;99053.83;4058124;86;28561;-75
2022/01/17 02:43:00;;;;;;;8.55;4.65;;;;;;;3.59;100.00;99029.42;4051700;86;28443;-77
2022/01/17 02:49:00;;;;;;;6.95;4.17;;;;;;;3.75;100.00;99013.75;4074957;86;28599;-76
2022/01/17 02:55:01;;;;;;;6.85;3.98;;;;;;;3.67;100.00;99018.34;4092476;85;28560;-77
2022/01/17 03:01:11;;;;;;;6.10;3.62;;;;;;;3.91;100.00;98990.58;4038361;86;28524;-77
2022/01/17 03:07:12;;;;;;;5.87;3.75;;;;;;;3.87;100.00;98986.14;4096358;84;28514;-76
2022/01/17 03:13:18;;;;;;;6.53;3.80;;;;;;;3.94;100.00;98981.41;4101182;85;28532;-76
2022/01/17 03:19:19;;;;;;;6.30;3.72;;;;;;;3.90;100.00;98983.12;4086026;84;28516;-75
2022/01/17 03:25:21;;;;;;;6.00;3.70;;;;;;;4.08;100.00;98988.50;4051817;85;28455;-76
2022/01/17 03:31:22;;;;;;;5.45;3.40;;;;;;;4.11;100.00;98977.98;4106974;84;28531;-76
2022/01/17 03:37:23;;;;;;;6.30;3.80;;;;;;;3.89;100.00;98971.33;4121836;85;28538;-76
2022/01/17 03:43:25;;;;;;;6.35;3.72;;;;;;;4.14;100.00;98986.41;4090780;85;28520;-76
2022/01/17 03:49:29;;;;;;;5.30;3.75;;;;;;;4.21;100.00;98978.98;4085705;85;28558;-79
2022/01/17 03:55:32;;;;;;;6.42;4.12;;;;;;;4.37;100.00;98960.59;4089699;84;28534;-76
2022/01/17 04:01:34;;;;;;;7.40;3.77;;;;;;;4.22;100.00;98951.35;4119746;84;28593;-77
2022/01/17 04:07:35;;;;;;;6.45;4.00;;;;;;;4.07;100.00;98937.62;4132976;84;28620;-77
2022/01/17 04:13:36;;;;;;;8.13;4.55;;;;;;;4.17;100.00;98939.98;4124670;84;28535;-76
2022/01/17 04:19:38;;;;;;;7.92;4.78;;;;;;;4.15;100.00;98940.16;4091782;84;28515;-77
2022/01/17 04:25:42;;;;;;;8.35;4.53;;;;;;;4.23;100.00;98950.36;4124978;84;28755;-76
2022/01/17 04:31:44;;;;;;;9.50;6.10;;;;;;;3.99;100.00;98945.23;4113402;84;28531;-77
2022/01/17 04:37:45;;;;;;;10.65;6.20;;;;;;;3.98;100.00;98950.73;4067513;85;28584;-76
2022/01/17 04:49:51;;;;;;;10.32;6.53;;;;;;;3.92;100.00;98954.17;4091216;85;28564;-76
2022/01/17 04:55:52;;;;;;;11.38;6.17;;;;;;;3.92;100.00;98945.67;4172481;84;28598;-75
2022/01/17 05:01:53;;;;;;;10.23;6.53;;;;;;;3.83;100.00;98936.17;4139875;85;28571;-76
2022/01/17 05:07:55;;;;;;;11.22;7.05;;;;;;;3.97;100.00;98932.64;4105150;85;28577;-75
2022/01/17 05:13:57;;;;;;;11.40;6.83;;;;;;;3.99;100.00;98910.66;4105594;85;28550;-76
2022/01/17 05:19:59;;;;;;;14.85;8.33;;;;;;;3.92;100.00;98912.95;4071698;85;28474;-75
2022/01/17 05:26:01;;;;;;;10.93;6.70;;;;;;;4.05;100.00;98889.92;4167545;84;28517;-77
2022/01/17 05:32:03;;;;;;;10.10;6.33;;;;;;;3.98;100.00;98865.12;4153088;84;28553;-76
2022/01/17 05:38:05;;;;;;;11.45;6.22;;;;;;;4.12;100.00;98862.05;4131143;84;28548;-75
2022/01/17 05:44:06;;;;;;;12.37;7.20;;;;;;;4.25;100.00;98859.98;4105675;85;28870;-74
2022/01/17 05:50:08;;;;;;;11.97;6.35;;;;;;;4.22;100.00;98843.08;4118561;84;28517;-72
2022/01/17 05:56:10;;;;;;;10.82;6.33;;;;;;;4.19;100.00;98840.81;4117032;84;28550;-75
2022/01/17 06:02:11;;;;;;;15.32;6.87;;;;;;;4.31;100.00;98845.91;4027898;86;28535;-77
2022/01/17 06:08:12;;;;;;;11.00;6.12;;;;;;;4.21;100.00;98823.30;4018338;86;28518;-76
2022/01/17 06:14:17;;;;;;;11.05;5.87;;;;;;;4.29;100.00;98808.02;4020641;86;28565;-81
2022/01/17 06:20:17;;;;;;;10.82;5.62;;;;;;;4.41;100.00;98813.59;4013700;86;28539;-74
2022/01/17 06:26:19;;;;;;;10.23;5.42;;;;;;;4.37;100.00;98808.86;4010635;86;28560;-76
2022/01/17 06:32:21;;;;;;;10.23;5.83;;;;;;;4.60;100.00;98810.74;3993064;86;28577;-79
2022/01/17 06:38:22;;;;;;;11.60;5.65;;;;;;;4.67;100.00;98781.97;4012386;86;28465;-82
2022/01/17 06:44:23;;;;;;;10.55;5.60;;;;;;;4.87;100.00;98766.87;4026626;86;28533;-78
2022/01/17 06:50:25;;;;;;;8.75;4.92;;;;;;;4.82;100.00;98781.83;4042495;86;28643;-79
2022/01/17 06:56:26;;;;;;;9.55;5.10;;;;;;;4.87;100.00;98760.75;4029406;86;28505;-80
2022/01/17 07:02:27;;;;;;;10.25;5.70;;;;;;;5.05;100.00;98736.69;4031690;86;28563;-80
2022/01/17 07:08:29;;;;;;;9.90;5.10;;;;;;;4.90;100.00;98723.04;4027591;86;28509;-80
2022/01/17 07:14:30;;;;;;;9.38;4.87;;;;;;;4.92;100.00;98695.68;4020359;86;28562;-81
2022/01/17 07:20:32;;;;;;;9.68;5.37;;;;;;;5.01;100.00;98713.12;4056568;85;28532;-80
2022/01/17 07:26:33;;;;;;;12.30;5.50;;;;;;;4.95;100.00;98741.92;4068314;85;28556;-80
2022/01/17 07:32:35;;;;;;;8.33;4.37;;;;;;;4.67;100.00;98780.64;4099017;85;28512;-80
2022/01/17 07:38:36;;;;;;;9.70;5.03;;;;;;;4.63;100.00;98784.73;4032950;86;28569;-80
2022/01/17 07:44:40;;;;;;;9.30;5.60;;;;;;;4.55;100.00;98735.14;4032086;86;28601;-80
2022/01/17 07:50:43;;;;;;;9.85;5.12;;;;;;;4.28;100.00;98695.93;4028330;86;28560;-81
2022/01/17 07:56:46;;;;;;;8.28;4.55;;;;;;;4.31;100.00;98682.71;4064886;85;28493;-80
2022/01/17 08:02:50;;;;;;;11.63;6.17;;;;;;;4.20;100.00;98656.18;4052541;86;28528;-80
2022/01/17 08:08:52;;;;;;;11.70;5.65;;;;;;;4.23;100.00;98613.72;4033585;86;28558;-81
2022/01/17 08:14:57;;;;;;;11.33;6.15;;;;;;;4.32;100.00;98585.88;4020600;86;28530;-80
2022/01/17 08:20:58;;;;;;;11.40;6.05;;;;;;;4.33;100.00;98572.91;4030817;86;28489;-81
2022/01/17 08:27:00;;;;;;;11.50;6.30;;;;;;;4.42;100.00;98563.67;4070809;86;28477;-81
2022/01/17 08:33:02;;;;;;;10.05;5.90;;;;;;;4.50;100.00;98554.70;4056938;86;28582;-80
2022/01/17 08:39:04;;;;;;;10.05;5.65;;;;;;;4.60;100.00;98587.07;4058487;86;28574;-79
2022/01/17 08:45:10;;;;;;;9.23;5.12;;;;;;;4.96;100.00;98561.06;4153307;84;28524;-80
2022/01/17 08:51:11;;;;;;;7.97;4.35;;;;;;;5.05;100.00;98508.36;4134670;84;28523;-79
2022/01/17 08:57:14;;;;;;;8.35;4.53;;;;;;;5.13;100.00;98525.47;4095672;84;28523;-80
2022/01/17 09:03:16;;;;;;;8.28;5.10;;;;;;;5.03;100.00;98489.11;4113602;84;28541;-81
2022/01/17 09:09:18;;;;;;;8.40;4.78;;;;;;;5.16;100.00;98513.58;4157482;84;28479;-80
2022/01/17 09:15:19;;;;;;;7.40;3.83;;;;;;;5.25;100.00;98470.98;4127376;84;28502;-81
2022/01/17 09:21:20;;;;;;;7.17;4.05;;;;;;;5.39;100.00;98463.77;4152232;84;28421;-81
2022/01/17 09:27:22;;;;;;;7.60;4.45;;;;;;;5.41;100.00;98419.57;4168179;84;28575;-80
2022/01/17 09:33:24;;;;;;;7.35;4.00;;;;;;;5.30;100.00;98441.87;4136783;84;28594;-80
2022/01/17 09:39:26;;;;;;;7.22;4.20;;;;;;;5.31;100.00;98454.69;4148923;84;28545;-79
2022/01/17 09:45:27;;;;;;;9.03;4.97;;;;;;;5.17;100.00;98420.61;4134507;85;28455;-80
2022/01/17 09:51:41;;;;;;;8.95;5.17;;;;;;;4.92;100.00;98423.15;4180448;84;28534;-79
2022/01/17 09:57:48;;;;;;;8.13;4.62;;;;;;;4.79;100.00;98391.53;4104247;85;28547;-80
2022/01/17 10:03:51;;;;;;;6.42;3.75;;;;;;;4.81;100.00;98370.83;4177944;84;28507;-83
2022/01/17 10:09:56;;;;;;;7.70;3.65;;;;;;;4.85;100.00;98369.89;4172564;84;28484;-80
2022/01/17 10:16:11;;;;;;;8.37;4.37;;;;;;;4.65;100.00;98351.30;4129987;84;28511;-80
2022/01/17 10:22:20;;;;;;;7.67;4.20;;;;;;;4.64;100.00;98349.17;4140654;84;33530;-81
2022/01/17 10:34:55;;;;;;;7.55;4.00;;;;;;;4.80;100.00;98313.27;4094879;85;28553;-82
2022/01/17 10:41:01;;;;;;;8.13;4.37;;;;;;;4.87;100.00;98318.55;4101930;85;28494;-79
2022/01/17 10:47:28;;;;;;;7.47;4.25;;;;;;;4.92;100.00;98297.94;4138959;84;35263;-81
2022/01/17 10:53:29;;;;;;;7.47;4.28;;;;;;;4.71;100.00;98279.91;4129283;84;28486;-79
2022/01/17 10:59:36;;;;;;;6.87;4.05;;;;;;;4.66;100.00;98296.52;4109971;84;28552;-78
2022/01/17 11:05:39;;;;;;;6.25;3.72;;;;;;;4.66;100.00;98287.70;4119606;84;28532;-81
2022/01/17 11:11:41;;;;;;;7.42;3.95;;;;;;;4.71;100.00;98274.58;4111846;84;28508;-78
2022/01/17 11:17:49;;;;;;;5.30;3.02;;;;;;;4.85;100.00;98262.02;4193028;84;28527;-80
2022/01/17 11:23:49;;;;;;;5.85;3.33;;;;;;;4.98;100.00;98287.75;4108480;85;28481;-78
2022/01/17 11:29:52;;;;;;;12.43;4.15;;;;;;;4.66;100.00;98275.21;4129980;84;28530;-79
2022/01/17 11:35:55;;;;;;;6.53;3.72;;;;;;;4.69;100.00;98274.78;4134160;84;28503;-81
2022/01/17 11:41:56;;;;;;;7.05;3.77;;;;;;;4.98;100.00;98245.12;4144603;84;28523;-78
2022/01/17 11:48:21;;;;;;;6.45;3.60;;;;;;;4.59;100.00;98239.80;4156371;84;28502;-78
2022/01/17 11:54:27;;;;;;;6.03;3.10;;;;;;;4.55;100.00;98233.28;4160762;84;28511;-78
2022/01/17 12:00:30;;;;;;;6.20;3.05;;;;;;;4.50;100.00;98250.38;4142222;84;28565;-79
2022/01/17 12:06:36;;;;;;;6.22;3.17;;;;;;;4.42;100.00;98250.11;4123743;85;28499;-77
2022/01/17 12:12:38;;;;;;;4.53;2.70;;;;;;;4.34;100.00;98243.19;4131143;84;28567;-79
2022/01/17 12:18:44;;;;;;;5.22;2.72;;;;;;;4.58;100.00;98248.32;4151234;84;28490;-80
2022/01/17 12:24:47;;;;;;;6.22;2.80;;;;;;;4.30;100.00;98245.95;4132017;84;28567;-78
2022/01/17 12:30:57;;;;;;;7.78;2.50;;;;;;;4.52;100.00;98288.25;4136306;84;28552;-79
2022/01/17 12:36:58;;;;;;;0.85;0.60;;;;;;;-149.40;100.00;119126.13;4151289;84;28515;-79
